sensor_id;sensor_type;location;lat;lon;timestamp;temperature;humidity
21811;DHT22;11067;48.788;9.208;2022-07-23T00:00:54;26.10;99.90
21811;DHT22;11067;48.788;9.208;2022-07-23T00:03:20;26.00;99.90
21811;DHT22;11067;48.788;9.208;2022-07-23T00:05:45;25.80;99.90
21811;DHT22;11067;48.788;9.208;2022-07-23T00:08:11;25.80;99.90
21811;DHT22;11067;48.788;9.208;2022-07-23T00:10:36;25.70;99.90
21811;DHT22;11067;48.788;9.208;2022-07-23T00:13:02;25.60;99.90
21811;DHT22;11067;48.788;9.208;2022-07-23T00:15:28;25.50;99.90
21811;DHT22;11067;48.788;9.208;2022-07-23T00:17:53;25.60;99.90
21811;DHT22;11067;48.788;9.208;2022-07-23T00:20:19;25.60;99.90
21811;DHT22;11067;48.788;9.208;2022-07-23T00:22:48;25.50;99.90
21811;DHT22;11067;48.788;9.208;2022-07-23T00:25:15;25.50;99.90
21811;DHT22;11067;48.788;9.208;2022-07-23T00:27:40;25.50;99.90
21811;DHT22;11067;48.788;9.208;2022-07-23T00:30:06;25.50;99.90
21811;DHT22;11067;48.788;9.208;2022-07-23T00:32:32;25.40;99.90
21811;DHT22;11067;48.788;9.208;2022-07-23T00:34:58;25.30;99.90
21811;DHT22;11067;48.788;9.208;2022-07-23T00:37:23;25.30;99.90
21811;DHT22;11067;48.788;9.208;2022-07-23T00:39:49;25.20;99.90
21811;DHT22;11067;48.788;9.208;2022-07-23T00:42:14;25.10;99.90
21811;DHT22;11067;48.788;9.208;2022-07-23T00:44:40;25.10;99.90
21811;DHT22;11067;48.788;9.208;2022-07-23T00:47:06;25.00;99.90
21811;DHT22;11067;48.788;9.208;2022-07-23T00:49:31;24.80;99.90
21811;DHT22;11067;48.788;9.208;2022-07-23T00:51:58;24.50;99.90
21811;DHT22;11067;48.788;9.208;2022-07-23T00:54:27;24.40;99.90
21811;DHT22;11067;48.788;9.208;2022-07-23T00:56:53;24.20;99.90
21811;DHT22;11067;48.788;9.208;2022-07-23T00:59:19;23.90;99.90
21811;DHT22;11067;48.788;9.208;2022-07-23T01:01:45;23.80;99.90
21811;DHT22;11067;48.788;9.208;2022-07-23T01:04:13;23.90;99.90
21811;DHT22;11067;48.788;9.208;2022-07-23T01:06:40;23.80;99.90
21811;DHT22;11067;48.788;9.208;2022-07-23T01:09:06;23.80;99.90
21811;DHT22;11067;48.788;9.208;2022-07-23T01:11:36;23.70;99.90
21811;DHT22;11067;48.788;9.208;2022-07-23T01:14:13;23.70;99.90
21811;DHT22;11067;48.788;9.208;2022-07-23T01:16:40;23.70;99.90
21811;DHT22;11067;48.788;9.208;2022-07-23T01:19:06;23.70;99.90
21811;DHT22;11067;48.788;9.208;2022-07-23T01:21:35;23.70;99.90
21811;DHT22;11067;48.788;9.208;2022-07-23T01:24:01;23.70;99.90
21811;DHT22;11067;48.788;9.208;2022-07-23T01:26:27;23.70;99.90
21811;DHT22;11067;48.788;9.208;2022-07-23T01:28:53;23.70;99.90
21811;DHT22;11067;48.788;9.208;2022-07-23T01:31:18;23.80;99.90
21811;DHT22;11067;48.788;9.208;2022-07-23T01:33:44;23.90;99.90
21811;DHT22;11067;48.788;9.208;2022-07-23T01:36:10;23.80;99.90
21811;DHT22;11067;48.788;9.208;2022-07-23T01:38:35;23.90;99.90
21811;DHT22;11067;48.788;9.208;2022-07-23T01:41:01;23.90;99.90
21811;DHT22;11067;48.788;9.208;2022-07-23T01:43:26;23.80;99.90
21811;DHT22;11067;48.788;9.208;2022-07-23T01:45:52;23.70;99.90
21811;DHT22;11067;48.788;9.208;2022-07-23T01:48:17;23.70;99.90
21811;DHT22;11067;48.788;9.208;2022-07-23T01:50:43;23.80;99.90
21811;DHT22;11067;48.788;9.208;2022-07-23T01:53:09;23.80;99.90
21811;DHT22;11067;48.788;9.208;2022-07-23T01:55:34;23.80;99.90
21811;DHT22;11067;48.788;9.208;2022-07-23T01:57:59;23.80;99.90
21811;DHT22;11067;48.788;9.208;2022-07-23T02:00:25;23.80;99.90
21811;DHT22;11067;48.788;9.208;2022-07-23T02:02:51;23.70;99.90
21811;DHT22;11067;48.788;9.208;2022-07-23T02:05:16;23.70;99.90
21811;DHT22;11067;48.788;9.208;2022-07-23T02:07:42;23.60;99.90
21811;DHT22;11067;48.788;9.208;2022-07-23T02:10:08;23.60;99.90
21811;DHT22;11067;48.788;9.208;2022-07-23T02:12:34;23.50;99.90
21811;DHT22;11067;48.788;9.208;2022-07-23T02:14:59;23.50;99.90
21811;DHT22;11067;48.788;9.208;2022-07-23T02:17:25;23.60;99.90
21811;DHT22;11067;48.788;9.208;2022-07-23T02:19:50;23.70;99.90
21811;DHT22;11067;48.788;9.208;2022-07-23T02:22:16;23.50;99.90
21811;DHT22;11067;48.788;9.208;2022-07-23T02:24:41;23.40;99.90
21811;DHT22;11067;48.788;9.208;2022-07-23T02:27:07;23.40;99.90
21811;DHT22;11067;48.788;9.208;2022-07-23T02:29:32;23.30;99.90
21811;DHT22;11067;48.788;9.208;2022-07-23T02:31:58;23.40;99.90
21811;DHT22;11067;48.788;9.208;2022-07-23T02:34:23;23.40;99.90
21811;DHT22;11067;48.788;9.208;2022-07-23T02:36:49;23.50;99.90
21811;DHT22;11067;48.788;9.208;2022-07-23T02:39:14;23.40;99.90
21811;DHT22;11067;48.788;9.208;2022-07-23T02:41:40;23.30;99.90
21811;DHT22;11067;48.788;9.208;2022-07-23T02:44:05;23.30;99.90
21811;DHT22;11067;48.788;9.208;2022-07-23T02:46:31;23.20;99.90
21811;DHT22;11067;48.788;9.208;2022-07-23T02:48:56;23.20;99.90
21811;DHT22;11067;48.788;9.208;2022-07-23T02:51:22;23.10;99.90
21811;DHT22;11067;48.788;9.208;2022-07-23T02:53:47;23.10;99.90
21811;DHT22;11067;48.788;9.208;2022-07-23T02:56:13;23.10;99.90
21811;DHT22;11067;48.788;9.208;2022-07-23T02:58:38;23.20;99.90
21811;DHT22;11067;48.788;9.208;2022-07-23T03:01:04;23.20;99.90
21811;DHT22;11067;48.788;9.208;2022-07-23T03:03:29;23.20;99.90
21811;DHT22;11067;48.788;9.208;2022-07-23T03:05:55;23.20;99.90
21811;DHT22;11067;48.788;9.208;2022-07-23T03:08:20;23.20;99.90
21811;DHT22;11067;48.788;9.208;2022-07-23T03:10:46;23.10;99.90
21811;DHT22;11067;48.788;9.208;2022-07-23T03:13:11;23.10;99.90
21811;DHT22;11067;48.788;9.208;2022-07-23T03:15:37;23.00;99.90
21811;DHT22;11067;48.788;9.208;2022-07-23T03:18:03;22.90;99.90
21811;DHT22;11067;48.788;9.208;2022-07-23T03:20:28;22.80;99.90
21811;DHT22;11067;48.788;9.208;2022-07-23T03:22:54;23.00;99.90
21811;DHT22;11067;48.788;9.208;2022-07-23T03:25:19;22.90;99.90
21811;DHT22;11067;48.788;9.208;2022-07-23T03:27:45;22.80;99.90
21811;DHT22;11067;48.788;9.208;2022-07-23T03:30:11;22.80;99.90
21811;DHT22;11067;48.788;9.208;2022-07-23T03:32:37;22.80;99.90
21811;DHT22;11067;48.788;9.208;2022-07-23T03:35:03;22.80;99.90
21811;DHT22;11067;48.788;9.208;2022-07-23T03:37:28;22.90;99.90
21811;DHT22;11067;48.788;9.208;2022-07-23T03:39:54;22.90;99.90
21811;DHT22;11067;48.788;9.208;2022-07-23T03:42:20;22.80;99.90
21811;DHT22;11067;48.788;9.208;2022-07-23T03:44:45;22.80;99.90
21811;DHT22;11067;48.788;9.208;2022-07-23T03:47:11;22.80;99.90
21811;DHT22;11067;48.788;9.208;2022-07-23T03:49:36;22.70;99.90
21811;DHT22;11067;48.788;9.208;2022-07-23T03:52:02;22.60;99.90
21811;DHT22;11067;48.788;9.208;2022-07-23T03:54:28;22.60;99.90
21811;DHT22;11067;48.788;9.208;2022-07-23T03:56:53;22.60;99.90
21811;DHT22;11067;48.788;9.208;2022-07-23T03:59:19;22.60;99.90
21811;DHT22;11067;48.788;9.208;2022-07-23T04:01:44;22.60;99.90
21811;DHT22;11067;48.788;9.208;2022-07-23T04:04:10;22.50;99.90
21811;DHT22;11067;48.788;9.208;2022-07-23T04:06:36;22.50;99.90
21811;DHT22;11067;48.788;9.208;2022-07-23T04:09:02;22.50;99.90
21811;DHT22;11067;48.788;9.208;2022-07-23T04:11:28;22.50;99.90
21811;DHT22;11067;48.788;9.208;2022-07-23T04:13:53;22.70;99.90
21811;DHT22;11067;48.788;9.208;2022-07-23T04:16:19;22.70;99.90
21811;DHT22;11067;48.788;9.208;2022-07-23T04:18:44;22.70;99.90
21811;DHT22;11067;48.788;9.208;2022-07-23T04:21:10;22.70;99.90
21811;DHT22;11067;48.788;9.208;2022-07-23T04:23:35;22.80;99.90
21811;DHT22;11067;48.788;9.208;2022-07-23T04:26:01;22.80;99.90
21811;DHT22;11067;48.788;9.208;2022-07-23T04:28:26;22.90;99.90
21811;DHT22;11067;48.788;9.208;2022-07-23T04:30:52;22.90;99.90
21811;DHT22;11067;48.788;9.208;2022-07-23T04:33:17;22.90;99.90
21811;DHT22;11067;48.788;9.208;2022-07-23T04:35:43;22.90;99.90
21811;DHT22;11067;48.788;9.208;2022-07-23T04:38:08;23.00;99.90
21811;DHT22;11067;48.788;9.208;2022-07-23T04:40:34;23.00;99.90
21811;DHT22;11067;48.788;9.208;2022-07-23T04:42:59;23.20;99.90
21811;DHT22;11067;48.788;9.208;2022-07-23T04:45:25;23.20;99.90
21811;DHT22;11067;48.788;9.208;2022-07-23T04:47:51;23.10;99.90
21811;DHT22;11067;48.788;9.208;2022-07-23T04:50:17;23.20;99.90
21811;DHT22;11067;48.788;9.208;2022-07-23T04:52:47;23.20;99.90
21811;DHT22;11067;48.788;9.208;2022-07-23T04:55:12;23.20;99.90
21811;DHT22;11067;48.788;9.208;2022-07-23T04:57:38;23.20;99.90
21811;DHT22;11067;48.788;9.208;2022-07-23T05:00:04;23.10;99.90
21811;DHT22;11067;48.788;9.208;2022-07-23T05:02:29;23.10;99.90
21811;DHT22;11067;48.788;9.208;2022-07-23T05:04:55;23.20;99.90
21811;DHT22;11067;48.788;9.208;2022-07-23T05:07:20;23.40;99.90
21811;DHT22;11067;48.788;9.208;2022-07-23T05:09:46;23.50;99.90
21811;DHT22;11067;48.788;9.208;2022-07-23T05:12:11;23.60;99.90
21811;DHT22;11067;48.788;9.208;2022-07-23T05:14:37;24.10;99.90
21811;DHT22;11067;48.788;9.208;2022-07-23T05:17:02;24.30;99.90
21811;DHT22;11067;48.788;9.208;2022-07-23T05:19:28;24.20;99.90
21811;DHT22;11067;48.788;9.208;2022-07-23T05:21:53;24.30;99.90
21811;DHT22;11067;48.788;9.208;2022-07-23T05:24:19;24.40;99.90
21811;DHT22;11067;48.788;9.208;2022-07-23T05:26:44;24.50;99.90
21811;DHT22;11067;48.788;9.208;2022-07-23T05:29:10;24.50;99.90
21811;DHT22;11067;48.788;9.208;2022-07-23T05:31:35;24.60;99.90
21811;DHT22;11067;48.788;9.208;2022-07-23T05:34:01;24.60;99.90
21811;DHT22;11067;48.788;9.208;2022-07-23T05:36:26;24.90;99.90
21811;DHT22;11067;48.788;9.208;2022-07-23T05:38:52;25.10;99.90
21811;DHT22;11067;48.788;9.208;2022-07-23T05:41:17;25.50;99.90
21811;DHT22;11067;48.788;9.208;2022-07-23T05:43:43;25.30;99.90
21811;DHT22;11067;48.788;9.208;2022-07-23T05:46:09;24.80;99.90
21811;DHT22;11067;48.788;9.208;2022-07-23T05:48:34;24.50;99.90
21811;DHT22;11067;48.788;9.208;2022-07-23T05:51:00;24.20;99.90
21811;DHT22;11067;48.788;9.208;2022-07-23T05:53:26;24.40;99.90
21811;DHT22;11067;48.788;9.208;2022-07-23T05:55:51;24.30;99.90
21811;DHT22;11067;48.788;9.208;2022-07-23T05:58:17;24.20;99.90
21811;DHT22;11067;48.788;9.208;2022-07-23T06:00:42;24.30;99.90
21811;DHT22;11067;48.788;9.208;2022-07-23T06:03:08;24.40;99.90
21811;DHT22;11067;48.788;9.208;2022-07-23T06:05:33;24.50;99.90
21811;DHT22;11067;48.788;9.208;2022-07-23T06:07:59;24.50;99.90
21811;DHT22;11067;48.788;9.208;2022-07-23T06:10:24;24.30;99.90
21811;DHT22;11067;48.788;9.208;2022-07-23T06:12:50;24.50;99.90
21811;DHT22;11067;48.788;9.208;2022-07-23T06:15:15;24.40;99.90
21811;DHT22;11067;48.788;9.208;2022-07-23T06:17:41;24.40;99.90
21811;DHT22;11067;48.788;9.208;2022-07-23T06:20:08;24.30;99.90
21811;DHT22;11067;48.788;9.208;2022-07-23T06:22:34;24.30;99.90
21811;DHT22;11067;48.788;9.208;2022-07-23T06:25:00;24.30;99.90
21811;DHT22;11067;48.788;9.208;2022-07-23T06:27:25;24.50;99.90
21811;DHT22;11067;48.788;9.208;2022-07-23T06:29:51;24.80;99.90
21811;DHT22;11067;48.788;9.208;2022-07-23T06:32:16;25.10;99.90
21811;DHT22;11067;48.788;9.208;2022-07-23T06:34:42;24.90;99.90
21811;DHT22;11067;48.788;9.208;2022-07-23T06:37:07;24.80;99.90
21811;DHT22;11067;48.788;9.208;2022-07-23T06:39:33;25.00;99.90
21811;DHT22;11067;48.788;9.208;2022-07-23T06:41:58;25.10;99.90
21811;DHT22;11067;48.788;9.208;2022-07-23T06:44:24;24.40;99.90
21811;DHT22;11067;48.788;9.208;2022-07-23T06:46:49;24.20;99.90
21811;DHT22;11067;48.788;9.208;2022-07-23T06:49:15;24.40;99.90
21811;DHT22;11067;48.788;9.208;2022-07-23T06:51:40;24.50;99.90
21811;DHT22;11067;48.788;9.208;2022-07-23T06:54:06;24.10;99.90
21811;DHT22;11067;48.788;9.208;2022-07-23T06:56:31;24.30;99.90
21811;DHT22;11067;48.788;9.208;2022-07-23T06:58:57;24.10;99.90
21811;DHT22;11067;48.788;9.208;2022-07-23T07:01:23;24.20;99.90
21811;DHT22;11067;48.788;9.208;2022-07-23T07:03:48;24.00;99.90
21811;DHT22;11067;48.788;9.208;2022-07-23T07:06:14;23.80;99.90
21811;DHT22;11067;48.788;9.208;2022-07-23T07:08:39;23.50;99.90
21811;DHT22;11067;48.788;9.208;2022-07-23T07:11:05;23.70;99.90
21811;DHT22;11067;48.788;9.208;2022-07-23T07:13:30;23.70;99.90
21811;DHT22;11067;48.788;9.208;2022-07-23T07:15:56;23.70;99.90
21811;DHT22;11067;48.788;9.208;2022-07-23T07:18:22;23.80;99.90
21811;DHT22;11067;48.788;9.208;2022-07-23T07:20:49;23.80;99.90
21811;DHT22;11067;48.788;9.208;2022-07-23T07:23:14;23.80;99.90
21811;DHT22;11067;48.788;9.208;2022-07-23T07:25:40;23.60;99.90
21811;DHT22;11067;48.788;9.208;2022-07-23T07:28:05;23.40;99.90
21811;DHT22;11067;48.788;9.208;2022-07-23T07:30:31;23.30;99.90
21811;DHT22;11067;48.788;9.208;2022-07-23T07:32:57;23.20;99.90
21811;DHT22;11067;48.788;9.208;2022-07-23T07:35:22;23.20;99.90
21811;DHT22;11067;48.788;9.208;2022-07-23T07:37:48;23.00;99.90
21811;DHT22;11067;48.788;9.208;2022-07-23T07:40:13;23.20;99.90
21811;DHT22;11067;48.788;9.208;2022-07-23T07:42:46;23.00;99.90
21811;DHT22;11067;48.788;9.208;2022-07-23T07:45:12;22.90;99.90
21811;DHT22;11067;48.788;9.208;2022-07-23T07:47:37;22.60;99.90
21811;DHT22;11067;48.788;9.208;2022-07-23T07:50:03;22.40;99.90
21811;DHT22;11067;48.788;9.208;2022-07-23T07:52:29;22.60;99.90
21811;DHT22;11067;48.788;9.208;2022-07-23T07:54:54;22.50;99.90
21811;DHT22;11067;48.788;9.208;2022-07-23T07:57:20;22.20;99.90
21811;DHT22;11067;48.788;9.208;2022-07-23T07:59:46;22.30;99.90
21811;DHT22;11067;48.788;9.208;2022-07-23T08:02:11;22.70;99.90
21811;DHT22;11067;48.788;9.208;2022-07-23T08:04:37;22.70;99.90
21811;DHT22;11067;48.788;9.208;2022-07-23T08:07:02;22.60;99.90
21811;DHT22;11067;48.788;9.208;2022-07-23T08:09:28;22.70;99.90
21811;DHT22;11067;48.788;9.208;2022-07-23T08:11:53;22.60;99.90
21811;DHT22;11067;48.788;9.208;2022-07-23T08:14:19;22.50;99.90
21811;DHT22;11067;48.788;9.208;2022-07-23T08:16:44;22.80;99.90
21811;DHT22;11067;48.788;9.208;2022-07-23T08:19:10;22.90;99.90
21811;DHT22;11067;48.788;9.208;2022-07-23T08:21:35;23.40;99.90
21811;DHT22;11067;48.788;9.208;2022-07-23T08:24:01;23.40;99.90
21811;DHT22;11067;48.788;9.208;2022-07-23T08:26:26;23.60;99.90
21811;DHT22;11067;48.788;9.208;2022-07-23T08:28:52;23.90;99.90
21811;DHT22;11067;48.788;9.208;2022-07-23T08:31:17;24.10;99.90
21811;DHT22;11067;48.788;9.208;2022-07-23T08:33:44;23.90;99.90
21811;DHT22;11067;48.788;9.208;2022-07-23T08:36:09;23.50;99.90
21811;DHT22;11067;48.788;9.208;2022-07-23T08:38:35;23.60;99.90
21811;DHT22;11067;48.788;9.208;2022-07-23T08:41:02;23.60;99.90
21811;DHT22;11067;48.788;9.208;2022-07-23T08:43:31;23.40;99.90
21811;DHT22;11067;48.788;9.208;2022-07-23T08:45:58;23.70;99.90
21811;DHT22;11067;48.788;9.208;2022-07-23T08:48:31;23.70;99.90
21811;DHT22;11067;48.788;9.208;2022-07-23T08:50:59;23.50;99.90
21811;DHT22;11067;48.788;9.208;2022-07-23T08:53:26;23.80;99.90
21811;DHT22;11067;48.788;9.208;2022-07-23T08:55:54;24.10;99.90
21811;DHT22;11067;48.788;9.208;2022-07-23T08:58:21;23.70;99.90
21811;DHT22;11067;48.788;9.208;2022-07-23T09:00:47;24.30;99.90
21811;DHT22;11067;48.788;9.208;2022-07-23T09:03:25;24.70;99.90
21811;DHT22;11067;48.788;9.208;2022-07-23T09:05:52;24.90;99.90
21811;DHT22;11067;48.788;9.208;2022-07-23T09:08:20;25.00;99.90
21811;DHT22;11067;48.788;9.208;2022-07-23T09:11:00;24.90;99.90
21811;DHT22;11067;48.788;9.208;2022-07-23T09:13:40;25.60;99.90
21811;DHT22;11067;48.788;9.208;2022-07-23T09:16:12;26.00;99.90
21811;DHT22;11067;48.788;9.208;2022-07-23T09:18:55;25.90;99.90
21811;DHT22;11067;48.788;9.208;2022-07-23T09:21:32;26.00;99.90
21811;DHT22;11067;48.788;9.208;2022-07-23T09:23:59;25.90;99.90
21811;DHT22;11067;48.788;9.208;2022-07-23T09:26:40;25.70;99.90
21811;DHT22;11067;48.788;9.208;2022-07-23T09:29:19;25.50;99.90
21811;DHT22;11067;48.788;9.208;2022-07-23T09:31:53;26.10;99.90
21811;DHT22;11067;48.788;9.208;2022-07-23T09:34:22;26.50;99.90
21811;DHT22;11067;48.788;9.208;2022-07-23T09:36:50;27.00;99.90
21811;DHT22;11067;48.788;9.208;2022-07-23T09:39:25;27.40;99.90
21811;DHT22;11067;48.788;9.208;2022-07-23T09:41:51;27.10;99.90
21811;DHT22;11067;48.788;9.208;2022-07-23T09:44:19;27.20;99.90
21811;DHT22;11067;48.788;9.208;2022-07-23T09:46:47;27.10;99.90
21811;DHT22;11067;48.788;9.208;2022-07-23T09:51:48;26.40;99.90
21811;DHT22;11067;48.788;9.208;2022-07-23T09:54:32;26.40;99.90
21811;DHT22;11067;48.788;9.208;2022-07-23T09:57:04;26.90;99.90
21811;DHT22;11067;48.788;9.208;2022-07-23T09:59:34;26.80;99.90
21811;DHT22;11067;48.788;9.208;2022-07-23T10:02:00;26.60;99.90
21811;DHT22;11067;48.788;9.208;2022-07-23T10:04:29;27.40;99.90
21811;DHT22;11067;48.788;9.208;2022-07-23T10:06:58;27.40;99.90
21811;DHT22;11067;48.788;9.208;2022-07-23T10:09:30;27.50;99.90
21811;DHT22;11067;48.788;9.208;2022-07-23T10:11:58;27.70;99.90
21811;DHT22;11067;48.788;9.208;2022-07-23T10:14:31;27.80;99.90
21811;DHT22;11067;48.788;9.208;2022-07-23T10:17:00;27.70;99.90
21811;DHT22;11067;48.788;9.208;2022-07-23T10:19:25;27.60;99.90
21811;DHT22;11067;48.788;9.208;2022-07-23T10:22:02;27.70;99.90
21811;DHT22;11067;48.788;9.208;2022-07-23T10:27:58;27.80;99.90
21811;DHT22;11067;48.788;9.208;2022-07-23T10:31:02;27.70;99.90
21811;DHT22;11067;48.788;9.208;2022-07-23T10:33:54;28.10;99.90
21811;DHT22;11067;48.788;9.208;2022-07-23T10:36:29;28.30;99.90
21811;DHT22;11067;48.788;9.208;2022-07-23T10:39:08;27.80;99.90
21811;DHT22;11067;48.788;9.208;2022-07-23T10:41:39;27.80;99.90
21811;DHT22;11067;48.788;9.208;2022-07-23T10:44:13;28.20;99.90
21811;DHT22;11067;48.788;9.208;2022-07-23T10:47:02;28.50;99.90
21811;DHT22;11067;48.788;9.208;2022-07-23T10:49:34;28.40;99.90
21811;DHT22;11067;48.788;9.208;2022-07-23T10:54:56;28.10;99.90
21811;DHT22;11067;48.788;9.208;2022-07-23T10:57:48;27.40;99.90
21811;DHT22;11067;48.788;9.208;2022-07-23T11:00:16;27.60;99.90
21811;DHT22;11067;48.788;9.208;2022-07-23T11:02:45;27.90;99.90
21811;DHT22;11067;48.788;9.208;2022-07-23T11:05:16;28.40;99.90
21811;DHT22;11067;48.788;9.208;2022-07-23T11:10:37;28.30;99.90
21811;DHT22;11067;48.788;9.208;2022-07-23T11:24:08;28.70;99.90
21811;DHT22;11067;48.788;9.208;2022-07-23T11:32:22;29.10;99.90
21811;DHT22;11067;48.788;9.208;2022-07-23T11:34:50;28.80;99.90
21811;DHT22;11067;48.788;9.208;2022-07-23T11:37:38;29.00;99.90
21811;DHT22;11067;48.788;9.208;2022-07-23T11:40:11;28.90;99.90
21811;DHT22;11067;48.788;9.208;2022-07-23T11:42:50;28.30;99.90
21811;DHT22;11067;48.788;9.208;2022-07-23T11:45:16;27.90;99.90
21811;DHT22;11067;48.788;9.208;2022-07-23T11:47:41;27.80;99.90
21811;DHT22;11067;48.788;9.208;2022-07-23T11:50:07;28.00;99.90
21811;DHT22;11067;48.788;9.208;2022-07-23T11:52:33;28.10;99.90
21811;DHT22;11067;48.788;9.208;2022-07-23T11:55:02;28.10;99.90
21811;DHT22;11067;48.788;9.208;2022-07-23T11:57:30;28.50;99.90
21811;DHT22;11067;48.788;9.208;2022-07-23T12:00:07;28.30;99.90
21811;DHT22;11067;48.788;9.208;2022-07-23T12:02:35;28.80;99.90
21811;DHT22;11067;48.788;9.208;2022-07-23T12:05:00;28.70;99.90
21811;DHT22;11067;48.788;9.208;2022-07-23T12:09:59;28.50;99.90
21811;DHT22;11067;48.788;9.208;2022-07-23T12:12:26;28.80;99.90
21811;DHT22;11067;48.788;9.208;2022-07-23T12:17:20;29.30;99.90
21811;DHT22;11067;48.788;9.208;2022-07-23T12:19:47;29.30;99.90
21811;DHT22;11067;48.788;9.208;2022-07-23T12:22:13;29.20;99.90
21811;DHT22;11067;48.788;9.208;2022-07-23T12:25:03;29.30;99.90
21811;DHT22;11067;48.788;9.208;2022-07-23T12:27:30;29.10;99.90
21811;DHT22;11067;48.788;9.208;2022-07-23T12:29:55;29.00;99.90
21811;DHT22;11067;48.788;9.208;2022-07-23T12:32:23;28.20;99.90
21811;DHT22;11067;48.788;9.208;2022-07-23T12:35:05;28.10;99.90
21811;DHT22;11067;48.788;9.208;2022-07-23T12:37:34;28.70;99.90
21811;DHT22;11067;48.788;9.208;2022-07-23T12:40:22;28.80;99.90
21811;DHT22;11067;48.788;9.208;2022-07-23T12:43:06;29.00;99.90
21811;DHT22;11067;48.788;9.208;2022-07-23T12:45:43;28.90;99.90
21811;DHT22;11067;48.788;9.208;2022-07-23T12:48:26;29.00;99.90
21811;DHT22;11067;48.788;9.208;2022-07-23T12:55:47;29.80;99.90
21811;DHT22;11067;48.788;9.208;2022-07-23T12:58:18;29.10;99.90
21811;DHT22;11067;48.788;9.208;2022-07-23T13:01:03;28.80;99.90
21811;DHT22;11067;48.788;9.208;2022-07-23T13:03:38;29.10;99.90
21811;DHT22;11067;48.788;9.208;2022-07-23T13:06:06;29.30;99.90
21811;DHT22;11067;48.788;9.208;2022-07-23T13:08:32;28.30;99.90
21811;DHT22;11067;48.788;9.208;2022-07-23T13:10:58;28.90;99.90
21811;DHT22;11067;48.788;9.208;2022-07-23T13:13:26;29.10;99.90
21811;DHT22;11067;48.788;9.208;2022-07-23T13:15:52;28.90;99.90
21811;DHT22;11067;48.788;9.208;2022-07-23T13:18:19;29.10;99.90
21811;DHT22;11067;48.788;9.208;2022-07-23T13:20:46;29.00;99.90
21811;DHT22;11067;48.788;9.208;2022-07-23T13:23:11;28.70;99.90
21811;DHT22;11067;48.788;9.208;2022-07-23T13:25:37;29.00;99.90
21811;DHT22;11067;48.788;9.208;2022-07-23T13:28:03;29.80;99.90
21811;DHT22;11067;48.788;9.208;2022-07-23T13:30:29;28.80;99.90
21811;DHT22;11067;48.788;9.208;2022-07-23T13:32:54;29.00;99.90
21811;DHT22;11067;48.788;9.208;2022-07-23T13:35:20;29.30;99.90
21811;DHT22;11067;48.788;9.208;2022-07-23T13:37:46;29.40;99.90
21811;DHT22;11067;48.788;9.208;2022-07-23T13:40:12;29.30;99.90
21811;DHT22;11067;48.788;9.208;2022-07-23T13:42:37;29.20;99.90
21811;DHT22;11067;48.788;9.208;2022-07-23T13:45:04;28.80;99.90
21811;DHT22;11067;48.788;9.208;2022-07-23T13:47:31;29.30;99.90
21811;DHT22;11067;48.788;9.208;2022-07-23T13:49:57;29.40;99.90
21811;DHT22;11067;48.788;9.208;2022-07-23T13:52:22;29.70;99.90
21811;DHT22;11067;48.788;9.208;2022-07-23T13:54:48;29.40;99.90
21811;DHT22;11067;48.788;9.208;2022-07-23T13:57:14;29.70;99.90
21811;DHT22;11067;48.788;9.208;2022-07-23T13:59:39;29.10;99.90
21811;DHT22;11067;48.788;9.208;2022-07-23T14:02:05;29.40;99.90
21811;DHT22;11067;48.788;9.208;2022-07-23T14:04:31;29.10;99.90
21811;DHT22;11067;48.788;9.208;2022-07-23T14:06:57;29.40;99.90
21811;DHT22;11067;48.788;9.208;2022-07-23T14:09:24;29.80;99.90
21811;DHT22;11067;48.788;9.208;2022-07-23T14:11:50;29.70;99.90
21811;DHT22;11067;48.788;9.208;2022-07-23T14:14:17;29.90;99.90
21811;DHT22;11067;48.788;9.208;2022-07-23T14:16:43;29.30;99.90
21811;DHT22;11067;48.788;9.208;2022-07-23T14:19:08;29.30;99.90
21811;DHT22;11067;48.788;9.208;2022-07-23T14:21:34;29.10;99.90
21811;DHT22;11067;48.788;9.208;2022-07-23T14:23:59;29.10;99.90
21811;DHT22;11067;48.788;9.208;2022-07-23T14:26:25;29.10;99.90
21811;DHT22;11067;48.788;9.208;2022-07-23T14:28:51;29.40;99.90
21811;DHT22;11067;48.788;9.208;2022-07-23T14:31:16;29.40;99.90
21811;DHT22;11067;48.788;9.208;2022-07-23T14:33:42;29.50;99.90
21811;DHT22;11067;48.788;9.208;2022-07-23T14:36:07;29.80;99.90
21811;DHT22;11067;48.788;9.208;2022-07-23T14:38:33;29.90;99.90
21811;DHT22;11067;48.788;9.208;2022-07-23T14:40:59;29.20;99.90
21811;DHT22;11067;48.788;9.208;2022-07-23T14:43:24;29.50;99.90
21811;DHT22;11067;48.788;9.208;2022-07-23T14:45:50;29.60;99.90
21811;DHT22;11067;48.788;9.208;2022-07-23T14:48:16;29.50;99.90
21811;DHT22;11067;48.788;9.208;2022-07-23T14:50:41;29.80;99.90
21811;DHT22;11067;48.788;9.208;2022-07-23T14:53:07;29.40;99.90
21811;DHT22;11067;48.788;9.208;2022-07-23T14:55:32;29.40;99.90
21811;DHT22;11067;48.788;9.208;2022-07-23T14:57:58;29.30;99.90
21811;DHT22;11067;48.788;9.208;2022-07-23T15:00:24;29.50;99.90
21811;DHT22;11067;48.788;9.208;2022-07-23T15:02:50;29.70;99.90
21811;DHT22;11067;48.788;9.208;2022-07-23T15:05:16;29.50;99.90
21811;DHT22;11067;48.788;9.208;2022-07-23T15:07:42;29.90;99.90
21811;DHT22;11067;48.788;9.208;2022-07-23T15:10:07;29.70;99.90
21811;DHT22;11067;48.788;9.208;2022-07-23T15:12:33;30.10;99.90
21811;DHT22;11067;48.788;9.208;2022-07-23T15:14:59;30.00;99.90
21811;DHT22;11067;48.788;9.208;2022-07-23T15:17:24;29.90;99.90
21811;DHT22;11067;48.788;9.208;2022-07-23T15:19:50;30.10;99.90
21811;DHT22;11067;48.788;9.208;2022-07-23T15:22:16;29.90;99.90
21811;DHT22;11067;48.788;9.208;2022-07-23T15:24:42;30.00;99.90
21811;DHT22;11067;48.788;9.208;2022-07-23T15:27:07;30.10;99.90
21811;DHT22;11067;48.788;9.208;2022-07-23T15:29:33;29.80;99.90
21811;DHT22;11067;48.788;9.208;2022-07-23T15:31:59;29.80;99.90
21811;DHT22;11067;48.788;9.208;2022-07-23T15:34:25;29.50;99.90
21811;DHT22;11067;48.788;9.208;2022-07-23T15:36:51;29.50;99.90
21811;DHT22;11067;48.788;9.208;2022-07-23T15:39:16;29.40;99.90
21811;DHT22;11067;48.788;9.208;2022-07-23T15:41:42;29.10;99.90
21811;DHT22;11067;48.788;9.208;2022-07-23T15:44:07;29.10;99.90
21811;DHT22;11067;48.788;9.208;2022-07-23T15:46:33;29.30;99.90
21811;DHT22;11067;48.788;9.208;2022-07-23T15:48:58;29.50;99.90
21811;DHT22;11067;48.788;9.208;2022-07-23T15:51:24;29.70;99.90
21811;DHT22;11067;48.788;9.208;2022-07-23T15:53:50;29.90;99.90
21811;DHT22;11067;48.788;9.208;2022-07-23T15:56:15;29.70;99.90
21811;DHT22;11067;48.788;9.208;2022-07-23T15:58:41;29.50;99.90
21811;DHT22;11067;48.788;9.208;2022-07-23T16:01:07;29.70;99.90
21811;DHT22;11067;48.788;9.208;2022-07-23T16:03:34;29.10;99.90
21811;DHT22;11067;48.788;9.208;2022-07-23T16:06:00;29.70;99.90
21811;DHT22;11067;48.788;9.208;2022-07-23T16:08:26;29.50;99.90